sim
Sign-in with your pilot id or email,
or register
Callsign
Passwort

Schedule Details

Flight Number: OEO7912
Departure: Munich Airport (EDDM) at 17:10
Arrival: Novosibirsk Tolmachevo Airport (UNNT) at 23:25

Weather Information
Getting current METAR information for EDDM 241050Z 27005KT 220V300 9999 FEW026 20/13 Q1010 NOSIG
Getting current METAR information for UNNT 241100Z 20005MPS 9999 BKN048CB 10/03 Q0997 R25/150065 R16/150065 NOSIG RMK QFE738/0984

Schedule Frequency

Route Map